createdAt,value
2019-02-27T00:00:11.411Z,101.20
2019-02-27T00:01:09.874Z,100.80
2019-02-27T00:02:09.787Z,97.60
2019-02-27T00:03:09.699Z,102.40
2019-02-27T00:04:09.636Z,105.10
2019-02-27T00:05:09.549Z,107.60
2019-02-27T00:06:09.452Z,101.80
2019-02-27T00:07:09.367Z,110.40
2019-02-27T00:08:09.276Z,99.70
2019-02-27T00:09:09.201Z,99.60
2019-02-27T00:10:09.115Z,103.90
2019-02-27T00:11:09.918Z,107.20
2019-02-27T00:12:08.939Z,110.60
2019-02-27T00:13:08.849Z,109.80
2019-02-27T00:14:08.766Z,105.00
2019-02-27T00:15:08.688Z,104.80
2019-02-27T00:16:10.849Z,110.20
2019-02-27T00:17:08.515Z,114.20
2019-02-27T00:18:08.429Z,111.50
2019-02-27T00:19:08.341Z,112.80
2019-02-27T00:20:08.254Z,114.30
2019-02-27T00:21:10.511Z,114.10
2019-02-27T00:22:08.089Z,105.10
2019-02-27T00:23:08.003Z,111.80
2019-02-27T00:24:07.922Z,107.50
2019-02-27T00:25:07.840Z,101.80
2019-02-27T00:26:09.052Z,114.60
2019-02-27T00:27:07.668Z,111.40
2019-02-27T00:28:07.576Z,107.70
2019-02-27T00:29:07.491Z,110.10
2019-02-27T00:30:07.403Z,114.70
2019-02-27T00:31:11.204Z,110.50
2019-02-27T00:32:07.245Z,115.10
2019-02-27T00:33:07.152Z,115.20
2019-02-27T00:34:07.065Z,123.30
2019-02-27T00:35:07.405Z,109.10
2019-02-27T00:36:06.891Z,111.20
2019-02-27T00:37:06.807Z,108.50
2019-02-27T00:38:06.729Z,111.40
2019-02-27T00:39:06.645Z,106.50
2019-02-27T00:40:06.569Z,119.70
2019-02-27T00:41:06.468Z,139.20
2019-02-27T00:42:06.380Z,119.60
2019-02-27T00:43:06.305Z,173.40
2019-02-27T00:44:06.219Z,164.30
2019-02-27T00:45:07.075Z,192.20
2019-02-27T00:46:06.041Z,179.20
2019-02-27T00:47:05.953Z,177.60
2019-02-27T00:48:05.869Z,200.90
2019-02-27T00:49:05.794Z,225.50
2019-02-27T00:50:06.610Z,201.80
2019-02-27T00:51:05.620Z,209.10
2019-02-27T00:52:05.531Z,206.60
2019-02-27T00:53:05.443Z,213.10
2019-02-27T00:54:05.355Z,195.00
2019-02-27T00:55:05.381Z,194.20
2019-02-27T00:56:05.193Z,186.60
2019-02-27T00:57:05.107Z,176.00
2019-02-27T00:58:05.017Z,196.40
2019-02-27T00:59:04.936Z,156.80
2019-02-27T01:00:06.503Z,155.50
2019-02-27T01:01:04.759Z,149.80
2019-02-27T01:02:04.682Z,149.20
2019-02-27T01:03:04.596Z,144.70
2019-02-27T01:04:04.507Z,144.10
2019-02-27T01:05:06.261Z,130.70
2019-02-27T01:06:04.330Z,131.70
2019-02-27T01:07:04.243Z,125.70
2019-02-27T01:08:04.168Z,125.20
2019-02-27T01:09:06.330Z,123.40
2019-02-27T01:10:04.001Z,124.70
2019-02-27T01:11:03.908Z,118.60
2019-02-27T01:12:03.821Z,130.70
2019-02-27T01:13:03.734Z,145.10
2019-02-27T01:14:04.154Z,130.30
2019-02-27T01:15:03.572Z,129.00
2019-02-27T01:16:03.483Z,144.10
2019-02-27T01:17:03.394Z,147.80
2019-02-27T01:18:03.307Z,154.50
2019-02-27T01:19:04.801Z,143.20
2019-02-27T01:20:03.147Z,147.80
2019-02-27T01:21:03.072Z,126.40
2019-02-27T01:22:03.272Z,119.50
2019-02-27T01:23:02.884Z,119.60
2019-02-27T01:24:02.797Z,139.50
2019-02-27T01:25:02.708Z,131.10
2019-02-27T01:26:02.632Z,135.20
2019-02-27T01:27:04.509Z,144.00
2019-02-27T01:28:02.470Z,164.20
2019-02-27T01:29:02.409Z,150.10
2019-02-27T01:30:02.285Z,137.30
2019-02-27T01:31:02.196Z,155.20
2019-02-27T01:32:02.108Z,158.80
2019-02-27T01:33:04.117Z,157.20
2019-02-27T01:34:01.949Z,153.40
2019-02-27T01:35:01.874Z,148.30
2019-02-27T01:36:01.774Z,159.50
2019-02-27T01:37:01.684Z,154.80
2019-02-27T01:38:05.105Z,152.20
2019-02-27T01:39:01.510Z,157.90
2019-02-27T01:40:01.434Z,145.90
2019-02-27T01:41:01.354Z,150.00
2019-02-27T01:42:01.262Z,155.00
2019-02-27T01:43:05.254Z,171.30
2019-02-27T01:44:01.088Z,179.80
2019-02-27T01:45:01.000Z,160.10
2019-02-27T01:46:00.925Z,161.40
2019-02-27T01:47:02.404Z,148.90
2019-02-27T01:48:00.750Z,139.60
2019-02-27T01:49:00.660Z,137.00
2019-02-27T01:50:00.575Z,132.10
2019-02-27T01:51:00.485Z,130.80
2019-02-27T01:52:02.086Z,189.70
2019-02-27T01:53:00.314Z,177.50
2019-02-27T01:54:00.238Z,170.50
2019-02-27T01:55:00.307Z,149.80
2019-02-27T01:56:00.063Z,158.40
2019-02-27T01:57:02.734Z,166.80
2019-02-27T01:57:59.887Z,148.50
2019-02-27T01:58:59.799Z,157.00
2019-02-27T01:59:59.713Z,153.90
2019-02-27T02:00:59.638Z,147.10
2019-02-27T02:02:01.115Z,146.50
2019-02-27T02:02:59.464Z,156.10
2019-02-27T02:03:59.376Z,140.40
2019-02-27T02:04:59.287Z,138.00
2019-02-27T02:05:59.793Z,141.10
2019-02-27T02:06:59.113Z,135.40
2019-02-27T02:07:59.038Z,136.50
2019-02-27T02:08:58.953Z,137.00
2019-02-27T02:09:58.864Z,130.30
2019-02-27T02:10:58.921Z,130.50
2019-02-27T02:11:58.989Z,135.40
2019-02-27T02:12:58.600Z,124.80
2019-02-27T02:13:58.513Z,135.60
2019-02-27T02:14:58.438Z,123.60
2019-02-27T02:16:00.864Z,137.60
2019-02-27T02:16:58.263Z,133.60
2019-02-27T02:17:58.177Z,146.20
2019-02-27T02:18:58.089Z,141.20
2019-02-27T02:19:58.002Z,144.20
2019-02-27T02:21:00.907Z,145.20
2019-02-27T02:21:57.840Z,145.50
2019-02-27T02:22:57.755Z,135.70
2019-02-27T02:23:57.666Z,132.30
2019-02-27T02:24:57.577Z,132.90
2019-02-27T02:26:01.104Z,141.60
2019-02-27T02:26:57.416Z,136.70
2019-02-27T02:27:57.327Z,133.50
2019-02-27T02:28:57.229Z,129.60
2019-02-27T02:29:57.157Z,141.40
2019-02-27T02:30:57.070Z,130.80
2019-02-27T02:31:56.979Z,128.40
2019-02-27T02:32:56.892Z,128.60
2019-02-27T02:33:56.806Z,135.50
2019-02-27T02:34:56.735Z,132.10
2019-02-27T02:35:56.630Z,128.60
2019-02-27T02:37:01.422Z,124.60
2019-02-27T02:37:56.466Z,126.00
2019-02-27T02:38:56.382Z,123.70
2019-02-27T02:39:56.291Z,137.00
2019-02-27T02:40:56.207Z,128.30
2019-02-27T02:41:56.130Z,129.50
2019-02-27T02:42:59.211Z,119.80
2019-02-27T02:43:55.944Z,127.90
2019-02-27T02:44:57.690Z,132.20
2019-02-27T02:45:55.781Z,126.90
2019-02-27T02:46:55.692Z,123.20
2019-02-27T02:47:56.696Z,125.60
2019-02-27T02:48:55.531Z,132.10
2019-02-27T02:49:55.429Z,126.30
2019-02-27T02:50:55.343Z,133.00
2019-02-27T02:51:55.259Z,136.80
2019-02-27T02:52:55.171Z,148.60
2019-02-27T02:54:00.666Z,147.30
2019-02-27T02:54:55.009Z,135.00
2019-02-27T02:55:54.934Z,146.80
2019-02-27T02:57:00.124Z,137.00
2019-02-27T02:57:54.743Z,132.00
2019-02-27T02:58:54.658Z,129.50
2019-02-27T02:59:59.374Z,128.90
2019-02-27T03:00:54.494Z,128.20
2019-02-27T03:01:54.408Z,133.30
2019-02-27T03:02:57.685Z,124.70
2019-02-27T03:03:54.235Z,123.50
2019-02-27T03:04:54.147Z,130.60
2019-02-27T03:05:58.395Z,129.20
2019-02-27T03:49:40.018Z,159.60
2019-02-27T03:50:36.340Z,163.70
2019-02-27T03:51:36.239Z,171.30
2019-02-27T03:52:37.190Z,163.10
2019-02-27T03:53:36.062Z,175.50
2019-02-27T03:54:35.975Z,168.30
2019-02-27T03:55:35.886Z,162.30
2019-02-27T03:56:35.810Z,209.00
2019-02-27T03:57:35.714Z,180.90
2019-02-27T03:58:35.638Z,162.60
2019-02-27T03:59:38.754Z,170.10
2019-02-27T04:00:35.461Z,161.50
2019-02-27T04:01:35.376Z,165.80
2019-02-27T04:02:35.288Z,159.00
2019-02-27T04:03:35.200Z,161.70
2019-02-27T04:04:35.113Z,153.60
2019-02-27T04:05:41.036Z,161.20
2019-02-27T04:06:34.939Z,145.60
2019-02-27T04:07:34.849Z,149.90
2019-02-27T04:08:34.767Z,155.10
2019-02-27T04:09:34.692Z,146.00
2019-02-27T04:10:34.603Z,145.60
2019-02-27T04:11:34.515Z,154.30
2019-02-27T04:12:34.426Z,141.60
2019-02-27T04:13:34.341Z,144.10
2019-02-27T04:14:40.287Z,143.30
2019-02-27T04:15:34.164Z,151.60
2019-02-27T04:16:34.079Z,149.20
2019-02-27T04:17:34.000Z,137.70
2019-02-27T04:18:33.906Z,132.10
2019-02-27T04:19:38.745Z,131.70
2019-02-27T04:20:33.750Z,122.30
2019-02-27T04:21:33.655Z,132.20
2019-02-27T04:22:36.575Z,117.80
2019-02-27T04:23:33.479Z,114.10
2019-02-27T04:24:33.390Z,109.80
2019-02-27T04:25:33.306Z,116.00
2019-02-27T04:26:33.218Z,123.90
2019-02-27T04:27:33.127Z,115.20
2019-02-27T04:28:33.047Z,113.00
2019-02-27T04:29:32.956Z,119.20
2019-02-27T04:30:32.880Z,118.90
2019-02-27T04:31:32.794Z,124.70
2019-02-27T04:32:32.707Z,113.00
2019-02-27T04:33:32.616Z,116.60
2019-02-27T04:34:33.299Z,117.40
2019-02-27T04:35:34.262Z,128.80
2019-02-27T04:36:32.353Z,123.00
2019-02-27T04:37:32.266Z,121.70
2019-02-27T04:38:32.178Z,122.70
2019-02-27T04:39:32.091Z,124.40
2019-02-27T04:40:32.018Z,120.50
2019-02-27T04:41:31.930Z,117.90
2019-02-27T04:42:31.846Z,115.80
2019-02-27T04:43:32.297Z,121.40
2019-02-27T04:44:31.667Z,119.10
2019-02-27T04:45:31.578Z,120.10
2019-02-27T04:46:31.492Z,124.60
2019-02-27T04:47:31.416Z,129.60
2019-02-27T04:48:31.405Z,129.00
2019-02-27T04:49:31.231Z,125.60
2019-02-27T04:50:31.144Z,133.80
2019-02-27T04:51:31.058Z,139.50
2019-02-27T04:52:30.982Z,137.20
2019-02-27T04:53:31.921Z,128.70
2019-02-27T04:54:30.805Z,128.60
2019-02-27T04:55:30.720Z,128.40
2019-02-27T04:56:30.633Z,118.60
2019-02-27T04:57:30.836Z,118.20
2019-02-27T04:58:31.344Z,125.20
2019-02-27T04:59:30.375Z,132.00
2019-02-27T05:00:30.280Z,125.20
2019-02-27T05:01:30.194Z,118.80
2019-02-27T05:02:30.106Z,114.70
2019-02-27T05:03:30.030Z,118.70
2019-02-27T05:04:34.887Z,115.90
2019-02-27T05:05:29.857Z,111.40
2019-02-27T05:06:29.772Z,114.90
2019-02-27T05:07:29.695Z,114.00
2019-02-27T05:08:29.596Z,108.40
2019-02-27T05:09:31.339Z,112.90
2019-02-27T05:10:29.424Z,120.80
2019-02-27T05:11:29.337Z,119.40
2019-02-27T05:12:29.246Z,123.50
2019-02-27T05:13:29.158Z,117.40
2019-02-27T05:14:29.070Z,122.10
2019-02-27T05:15:28.983Z,122.70
2019-02-27T05:16:28.909Z,121.80
2019-02-27T05:17:28.823Z,121.70
2019-02-27T05:18:29.469Z,116.50
2019-02-27T05:19:28.653Z,117.10
2019-02-27T05:20:28.560Z,123.30
2019-02-27T05:21:28.472Z,119.40
2019-02-27T05:22:28.382Z,117.00
2019-02-27T05:23:28.308Z,119.70
2019-02-27T05:24:28.222Z,119.60
2019-02-27T05:25:28.120Z,118.00
2019-02-27T05:26:28.033Z,115.50
2019-02-27T05:27:27.946Z,121.30
2019-02-27T05:28:27.862Z,107.80
2019-02-27T05:29:27.785Z,124.50
2019-02-27T05:30:27.698Z,112.20
2019-02-27T05:31:27.624Z,111.00
2019-02-27T05:32:28.337Z,121.10
2019-02-27T05:33:27.437Z,123.90
2019-02-27T05:34:27.349Z,126.20
2019-02-27T05:35:27.259Z,125.20
2019-02-27T05:36:29.028Z,123.00
2019-02-27T05:37:27.089Z,133.30
2019-02-27T05:38:27.003Z,136.70
2019-02-27T05:39:26.912Z,138.50
2019-02-27T05:40:26.824Z,136.10
2019-02-27T05:41:26.737Z,138.90
2019-02-27T05:42:26.650Z,130.90
2019-02-27T05:43:26.580Z,125.00
2019-02-27T05:44:26.485Z,130.00
2019-02-27T05:45:30.340Z,136.00
2019-02-27T05:46:26.310Z,128.70
2019-02-27T05:47:26.223Z,125.80
2019-02-27T05:48:26.137Z,127.60
2019-02-27T05:49:27.388Z,130.60
2019-02-27T05:50:25.963Z,139.70
2019-02-27T05:51:25.879Z,133.10
2019-02-27T05:52:25.786Z,135.20
2019-02-27T05:53:25.706Z,128.70
2019-02-27T05:54:25.619Z,128.90
2019-02-27T05:55:25.524Z,127.00
2019-02-27T05:56:25.437Z,115.60
2019-02-27T05:57:25.349Z,115.80
2019-02-27T05:58:25.269Z,105.10
2019-02-27T05:59:28.889Z,118.20
2019-02-27T06:00:25.102Z,105.30
2019-02-27T06:01:25.002Z,108.30
2019-02-27T06:02:25.548Z,106.20
2019-02-27T06:03:24.838Z,107.00
2019-02-27T06:04:25.114Z,109.80
2019-02-27T06:05:24.662Z,106.70
2019-02-27T06:06:24.575Z,109.20
2019-02-27T06:07:24.487Z,105.80
2019-02-27T06:08:24.403Z,106.60
2019-02-27T06:09:24.315Z,105.10
2019-02-27T06:10:24.254Z,104.90
2019-02-27T06:11:24.153Z,99.70
2019-02-27T06:12:24.053Z,102.10
2019-02-27T06:13:23.965Z,99.20
2019-02-27T06:14:23.887Z,97.80
2019-02-27T06:15:26.011Z,95.40
2019-02-27T06:16:23.701Z,97.40
2019-02-27T06:17:23.624Z,92.80
2019-02-27T06:18:23.775Z,95.20
2019-02-27T06:19:23.457Z,95.40
2019-02-27T06:20:23.366Z,89.10
2019-02-27T06:21:23.285Z,91.00
2019-02-27T06:22:23.192Z,93.80
2019-02-27T06:23:23.104Z,87.30
2019-02-27T06:24:23.014Z,89.90
2019-02-27T06:25:23.967Z,87.80
2019-02-27T06:26:22.854Z,87.50
2019-02-27T06:27:22.754Z,89.80
2019-02-27T06:28:22.664Z,87.00
2019-02-27T06:29:23.934Z,79.20
2019-02-27T06:30:22.490Z,80.50
2019-02-27T06:31:22.414Z,83.30
2019-02-27T06:32:22.330Z,91.50
2019-02-27T06:33:22.243Z,82.50
2019-02-27T06:34:22.292Z,81.00
2019-02-27T06:35:22.067Z,91.30
2019-02-27T06:36:21.978Z,81.10
2019-02-27T06:37:21.890Z,85.60
2019-02-27T06:38:25.013Z,81.30
2019-02-27T06:39:21.716Z,85.60
2019-02-27T06:40:21.652Z,80.20
2019-02-27T06:41:21.543Z,82.60
2019-02-27T06:42:21.537Z,80.70
2019-02-27T06:43:21.370Z,78.30
2019-02-27T06:44:21.293Z,78.40
2019-02-27T06:45:21.209Z,82.30
2019-02-27T06:46:21.119Z,75.50
2019-02-27T06:47:21.032Z,76.60
2019-02-27T06:48:20.942Z,74.60
2019-02-27T06:49:20.855Z,74.30
2019-02-27T06:50:25.283Z,67.50
2019-02-27T06:51:20.680Z,68.80
2019-02-27T06:52:20.596Z,66.30
2019-02-27T06:53:20.507Z,65.80
2019-02-27T06:54:20.420Z,68.30
2019-02-27T06:55:20.345Z,61.60
2019-02-27T06:56:20.256Z,60.10
2019-02-27T06:57:20.168Z,58.40
2019-02-27T06:58:20.080Z,59.40
2019-02-27T06:59:24.531Z,60.70
2019-02-27T07:00:19.908Z,61.00
2019-02-27T07:01:19.826Z,58.10
2019-02-27T07:02:21.669Z,54.90
2019-02-27T07:03:19.646Z,56.40
2019-02-27T07:04:19.569Z,58.90
2019-02-27T07:05:19.482Z,55.80
2019-02-27T07:06:21.658Z,57.50
2019-02-27T07:07:19.310Z,54.70
2019-02-27T07:08:19.236Z,55.10
2019-02-27T07:09:19.135Z,51.00
2019-02-27T07:10:20.037Z,52.70
2019-02-27T07:11:18.971Z,48.60
2019-02-27T07:12:21.661Z,48.80
2019-02-27T07:13:18.794Z,47.70
2019-02-27T07:14:18.707Z,46.50
2019-02-27T07:15:18.620Z,44.50
2019-02-27T07:16:20.492Z,46.40
2019-02-27T07:17:18.446Z,44.30
2019-02-27T07:18:18.369Z,44.50
2019-02-27T07:19:18.283Z,44.30
2019-02-27T07:20:18.197Z,43.00
2019-02-27T07:21:18.112Z,40.00
2019-02-27T07:22:18.023Z,40.10
2019-02-27T07:23:22.636Z,39.10
2019-02-27T07:24:17.862Z,42.10
2019-02-27T07:25:17.772Z,39.80
2019-02-27T07:26:17.684Z,39.10
2019-02-27T07:27:17.596Z,38.90
2019-02-27T07:28:17.511Z,40.40
2019-02-27T07:29:21.576Z,37.20
2019-02-27T07:30:17.349Z,36.40
2019-02-27T07:31:18.329Z,38.00
2019-02-27T07:32:17.173Z,35.40
2019-02-27T07:33:17.088Z,34.40
2019-02-27T07:34:17.012Z,33.50
2019-02-27T07:35:16.928Z,35.00
2019-02-27T07:36:16.842Z,32.70
2019-02-27T07:37:16.748Z,34.70
2019-02-27T07:38:21.412Z,33.50
2019-02-27T07:39:16.585Z,32.60
2019-02-27T07:40:16.500Z,32.20
2019-02-27T07:41:20.225Z,34.20
2019-02-27T07:42:16.339Z,33.40
2019-02-27T07:43:16.249Z,33.30
2019-02-27T07:44:16.172Z,33.00
2019-02-27T07:45:16.085Z,33.70
2019-02-27T07:46:15.999Z,32.00
2019-02-27T07:47:15.923Z,35.60
2019-02-27T07:48:15.836Z,35.40
2019-02-27T07:49:15.749Z,35.40
2019-02-27T07:50:15.674Z,33.20
2019-02-27T07:51:15.586Z,31.60
2019-02-27T07:52:15.501Z,32.90
2019-02-27T07:53:17.470Z,30.00
2019-02-27T07:54:15.339Z,32.10
2019-02-27T07:55:21.584Z,31.10
2019-02-27T07:56:15.174Z,35.20
2019-02-27T07:57:15.087Z,31.50
2019-02-27T07:58:15.013Z,33.60
2019-02-27T07:59:14.924Z,30.90
2019-02-27T08:00:15.191Z,31.50
2019-02-27T08:01:14.766Z,32.40
2019-02-27T08:02:14.677Z,33.20
2019-02-27T08:03:14.601Z,31.60
2019-02-27T08:04:19.058Z,36.00
2019-02-27T08:05:14.428Z,32.90
2019-02-27T08:06:14.355Z,34.20
2019-02-27T08:07:14.265Z,31.90
2019-02-27T08:08:14.189Z,33.10
2019-02-27T08:09:14.102Z,34.70
2019-02-27T08:10:14.021Z,35.40
2019-02-27T08:11:14.248Z,34.80
2019-02-27T08:12:13.854Z,35.80
2019-02-27T08:13:13.767Z,32.90
2019-02-27T08:14:13.691Z,30.40
2019-02-27T08:15:13.729Z,33.00
2019-02-27T08:16:13.519Z,31.60
2019-02-27T08:17:17.625Z,32.80
2019-02-27T08:18:13.406Z,33.60
2019-02-27T08:19:13.264Z,34.60
2019-02-27T08:20:13.191Z,36.40
2019-02-27T08:21:13.103Z,33.40
2019-02-27T08:22:13.021Z,34.90
2019-02-27T08:23:12.940Z,36.70
2019-02-27T08:24:12.854Z,33.30
2019-02-27T08:25:12.769Z,32.40
2019-02-27T08:26:12.693Z,33.10
2019-02-27T08:27:12.604Z,33.80
2019-02-27T08:28:12.520Z,33.50
2019-02-27T08:29:12.441Z,35.90
2019-02-27T08:30:12.366Z,36.50
2019-02-27T08:31:12.268Z,32.90
2019-02-27T08:32:12.192Z,33.10
2019-02-27T08:33:12.105Z,33.60
2019-02-27T08:34:12.018Z,32.00
2019-02-27T08:35:11.943Z,34.30
2019-02-27T08:36:11.854Z,31.50
2019-02-27T08:37:11.769Z,32.80
2019-02-27T08:38:11.701Z,36.70
2019-02-27T08:39:11.610Z,32.90
2019-02-27T08:40:11.530Z,31.60
2019-02-27T08:41:11.447Z,30.80
2019-02-27T08:42:11.354Z,32.70
2019-02-27T08:43:11.279Z,31.70
2019-02-27T08:44:12.279Z,31.20
2019-02-27T08:45:19.182Z,34.90
2019-02-27T08:46:11.032Z,30.20
2019-02-27T08:47:10.956Z,30.70
2019-02-27T08:48:10.868Z,32.80
2019-02-27T08:49:10.780Z,32.90
2019-02-27T08:50:10.705Z,31.10
2019-02-27T08:51:10.630Z,31.40
2019-02-27T08:52:13.096Z,30.20
2019-02-27T08:53:10.455Z,34.00
2019-02-27T08:54:10.380Z,31.80
2019-02-27T08:55:18.834Z,30.20
2019-02-27T08:56:12.181Z,30.90
2019-02-27T08:57:10.132Z,32.80
2019-02-27T08:58:10.059Z,32.50
2019-02-27T08:59:09.971Z,29.80
2019-02-27T09:00:14.185Z,31.10
2019-02-27T09:01:09.806Z,33.00
2019-02-27T09:02:09.731Z,32.40
2019-02-27T09:03:19.668Z,32.40
2019-02-27T09:04:11.688Z,32.50
2019-02-27T09:05:09.486Z,29.10
2019-02-27T09:06:09.409Z,32.40
2019-02-27T09:07:09.322Z,32.90
2019-02-27T09:08:10.143Z,30.90
2019-02-27T09:09:09.158Z,30.80
2019-02-27T09:10:09.094Z,32.80
2019-02-27T09:11:09.008Z,34.10
2019-02-27T09:12:13.189Z,32.80
2019-02-27T09:13:08.847Z,32.20
2019-02-27T09:14:08.760Z,33.00
2019-02-27T09:15:08.704Z,30.80
2019-02-27T09:16:08.608Z,31.80
2019-02-27T09:17:08.521Z,32.80
2019-02-27T09:18:08.446Z,29.90
2019-02-27T09:19:09.467Z,30.10
2019-02-27T09:20:08.285Z,31.00
2019-02-27T09:21:08.214Z,36.00
2019-02-27T09:22:08.123Z,32.20
2019-02-27T09:23:08.048Z,34.20
2019-02-27T09:24:07.961Z,32.60
2019-02-27T09:25:07.885Z,32.50
2019-02-27T09:26:07.811Z,30.70
2019-02-27T09:27:07.724Z,30.70
2019-02-27T09:28:09.291Z,31.40
2019-02-27T09:29:07.561Z,34.40
2019-02-27T09:30:07.484Z,35.00
2019-02-27T09:31:07.409Z,32.80
2019-02-27T09:32:11.395Z,32.20
2019-02-27T09:33:07.250Z,32.80
2019-02-27T09:34:07.201Z,32.90
2019-02-27T09:35:07.087Z,30.80
2019-02-27T09:36:08.042Z,32.30
2019-02-27T09:37:06.927Z,30.80
2019-02-27T09:38:08.561Z,30.60
2019-02-27T09:39:06.762Z,30.20
2019-02-27T09:40:06.685Z,31.70
2019-02-27T09:41:06.610Z,32.20
2019-02-27T09:42:06.525Z,32.20
2019-02-27T09:43:06.449Z,31.10
2019-02-27T09:44:06.376Z,29.70
2019-02-27T09:45:08.288Z,31.00
2019-02-27T09:46:06.336Z,30.50
2019-02-27T09:47:06.137Z,33.00
2019-02-27T09:48:06.049Z,28.30
2019-02-27T09:49:07.056Z,30.60
2019-02-27T09:50:05.889Z,27.90
2019-02-27T09:51:05.811Z,29.10
2019-02-27T09:52:05.739Z,28.20
2019-02-27T09:53:05.655Z,29.60
2019-02-27T09:54:05.577Z,30.50
2019-02-27T09:55:05.502Z,28.70
2019-02-27T09:56:05.413Z,30.30
2019-02-27T09:57:05.338Z,29.40
2019-02-27T09:58:09.923Z,29.60
2019-02-27T09:59:05.177Z,31.60
2019-02-27T10:00:05.100Z,29.70
2019-02-27T10:01:05.015Z,28.90
2019-02-27T10:02:06.287Z,29.10
2019-02-27T10:03:04.851Z,28.50
2019-02-27T10:04:04.778Z,30.30
2019-02-27T10:05:04.689Z,26.80
2019-02-27T10:06:04.615Z,30.00
2019-02-27T10:07:04.539Z,29.10
2019-02-27T10:08:04.452Z,29.90
2019-02-27T10:09:04.378Z,29.10
2019-02-27T10:10:04.291Z,28.20
2019-02-27T10:11:04.213Z,27.70
2019-02-27T10:12:04.126Z,28.80
2019-02-27T10:13:04.136Z,25.60
2019-02-27T10:14:03.976Z,27.20
2019-02-27T10:15:03.889Z,25.80
2019-02-27T10:16:03.835Z,28.80
2019-02-27T10:17:03.732Z,26.50
2019-02-27T10:18:03.660Z,27.30
2019-02-27T10:19:03.573Z,26.60
2019-02-27T10:20:03.488Z,28.80
2019-02-27T10:21:03.403Z,26.30
2019-02-27T10:22:03.328Z,26.30
2019-02-27T10:23:03.240Z,27.40
2019-02-27T10:24:04.819Z,26.60
2019-02-27T10:25:03.082Z,28.00
2019-02-27T10:26:03.006Z,28.10
2019-02-27T10:27:03.210Z,27.00
2019-02-27T10:28:04.369Z,26.10
2019-02-27T10:29:02.768Z,27.30
2019-02-27T10:30:11.084Z,27.40
2019-02-27T10:31:02.611Z,27.50
2019-02-27T10:32:02.519Z,25.60
2019-02-27T10:33:03.438Z,23.80
2019-02-27T10:34:02.357Z,25.20
2019-02-27T10:35:02.279Z,24.70
2019-02-27T10:36:03.675Z,25.20
2019-02-27T10:37:02.159Z,24.80
2019-02-27T10:38:02.043Z,27.30
2019-02-27T10:39:02.229Z,26.30
2019-02-27T10:40:01.880Z,26.00
2019-02-27T10:41:01.794Z,26.40
2019-02-27T10:42:01.718Z,23.80
2019-02-27T10:43:01.643Z,24.70
2019-02-27T10:44:01.555Z,24.60
2019-02-27T10:45:01.480Z,24.50
2019-02-27T10:46:01.405Z,23.60
2019-02-27T10:47:01.318Z,25.50
2019-02-27T10:48:01.245Z,24.40
2019-02-27T10:49:01.161Z,22.50
2019-02-27T10:50:02.200Z,24.00
2019-02-27T10:51:00.994Z,30.40
2019-02-27T10:52:00.917Z,23.90
2019-02-27T10:53:00.832Z,23.60
2019-02-27T10:54:04.508Z,23.00
2019-02-27T10:55:00.683Z,24.50
2019-02-27T10:56:00.597Z,23.50
2019-02-27T10:57:00.520Z,23.70
2019-02-27T10:58:00.436Z,25.80
2019-02-27T10:59:00.358Z,24.40
2019-02-27T11:00:00.332Z,27.10
2019-02-27T11:01:01.120Z,25.90
2019-02-27T11:02:00.123Z,25.10
2019-02-27T11:03:00.034Z,24.00
2019-02-27T11:04:00.530Z,24.10
2019-02-27T11:04:59.872Z,25.20
2019-02-27T11:05:59.794Z,24.40
2019-02-27T11:06:59.719Z,25.10
2019-02-27T11:07:59.639Z,23.30
2019-02-27T11:08:59.560Z,25.90
2019-02-27T11:09:59.485Z,25.90
2019-02-27T11:10:59.399Z,25.70
2019-02-27T11:11:59.322Z,26.40
2019-02-27T11:12:59.244Z,23.60
2019-02-27T11:13:59.158Z,23.40
2019-02-27T11:14:59.083Z,22.70
2019-02-27T11:15:58.999Z,22.30
2019-02-27T11:17:02.045Z,22.30
2019-02-27T11:18:04.222Z,27.30
2019-02-27T11:18:58.758Z,24.60
2019-02-27T11:19:58.684Z,23.70
2019-02-27T11:20:59.249Z,23.30
2019-02-27T11:21:59.088Z,23.20
2019-02-27T11:22:58.445Z,22.90
2019-02-27T11:23:58.371Z,21.80
2019-02-27T11:24:58.295Z,25.20
2019-02-27T11:25:58.209Z,23.30
2019-02-27T11:26:58.134Z,23.70
2019-02-27T11:27:58.060Z,24.00
2019-02-27T11:28:57.980Z,21.80
2019-02-27T11:30:01.251Z,23.80
2019-02-27T11:30:57.836Z,23.90
2019-02-27T11:31:57.746Z,24.40
2019-02-27T11:32:58.006Z,24.70
2019-02-27T11:33:57.585Z,23.80
2019-02-27T11:34:57.510Z,22.90
2019-02-27T11:35:57.436Z,23.50
2019-02-27T11:36:57.346Z,20.80
2019-02-27T11:37:57.276Z,20.20
2019-02-27T11:38:59.179Z,19.00
2019-02-27T11:39:57.123Z,22.70
2019-02-27T11:40:57.036Z,23.10
2019-02-27T11:41:56.961Z,20.60
2019-02-27T11:42:56.889Z,20.30
2019-02-27T11:43:56.811Z,20.40
2019-02-27T11:44:56.738Z,21.30
2019-02-27T11:45:58.049Z,22.70
2019-02-27T11:46:58.928Z,22.00
2019-02-27T11:47:56.500Z,22.30
2019-02-27T11:48:56.998Z,24.00
2019-02-27T11:49:56.349Z,25.70
2019-02-27T11:50:56.274Z,22.20
2019-02-27T11:51:57.101Z,21.20
2019-02-27T11:52:56.126Z,23.20
2019-02-27T11:53:56.062Z,22.30
2019-02-27T11:54:55.976Z,21.70
2019-02-27T11:55:55.899Z,22.00
2019-02-27T11:56:56.934Z,25.60
2019-02-27T11:57:55.762Z,24.00
2019-02-27T11:58:55.674Z,23.70
2019-02-27T11:59:55.613Z,24.70
2019-02-27T12:00:55.526Z,23.00
2019-02-27T12:01:56.187Z,23.50
2019-02-27T12:02:55.427Z,22.30
2019-02-27T12:03:55.314Z,23.60
2019-02-27T12:04:56.658Z,21.90
2019-02-27T12:05:55.166Z,22.30
2019-02-27T12:06:55.089Z,22.90
2019-02-27T12:07:55.015Z,23.10
2019-02-27T12:08:59.454Z,21.90
2019-02-27T12:09:54.865Z,23.30
2019-02-27T12:10:54.789Z,21.60
2019-02-27T12:11:54.726Z,21.50
2019-02-27T12:12:59.715Z,22.40
2019-02-27T12:13:54.867Z,21.40
2019-02-27T12:14:54.502Z,24.80
2019-02-27T12:15:54.428Z,19.70
2019-02-27T12:16:54.354Z,22.40
2019-02-27T12:17:54.277Z,22.20
2019-02-27T12:18:54.201Z,20.60
2019-02-27T12:19:54.127Z,21.60
2019-02-27T12:20:54.140Z,23.00
2019-02-27T12:21:53.990Z,20.10
2019-02-27T12:22:53.915Z,20.20
2019-02-27T12:23:53.840Z,18.80
2019-02-27T12:24:53.765Z,20.50
2019-02-27T12:25:53.691Z,18.60
2019-02-27T12:26:53.616Z,17.00
2019-02-27T12:27:53.545Z,19.00
2019-02-27T12:28:53.675Z,19.20
2019-02-27T12:29:53.418Z,18.90
2019-02-27T12:30:53.328Z,18.90
2019-02-27T12:31:53.253Z,19.20
2019-02-27T12:32:55.747Z,17.50
2019-02-27T12:33:53.106Z,18.30
2019-02-27T12:34:53.028Z,20.00
2019-02-27T12:35:52.954Z,19.20
2019-02-27T12:36:53.263Z,18.60
2019-02-27T12:37:52.817Z,20.20
2019-02-27T12:38:52.741Z,18.80
2019-02-27T12:39:52.667Z,16.40
2019-02-27T12:40:52.593Z,20.00
2019-02-27T12:41:52.518Z,18.40
2019-02-27T12:42:52.443Z,18.70
2019-02-27T12:43:52.682Z,16.30
2019-02-27T12:44:54.605Z,18.60
2019-02-27T12:45:52.242Z,14.90
2019-02-27T12:46:52.156Z,14.10
2019-02-27T12:47:52.080Z,15.50
2019-02-27T12:48:52.005Z,15.80
2019-02-27T12:49:54.167Z,14.50
2019-02-27T12:50:51.869Z,15.90
2019-02-27T12:51:51.793Z,15.70
2019-02-27T12:52:51.719Z,16.20
2019-02-27T12:53:54.353Z,15.70
2019-02-27T12:54:51.569Z,16.20
2019-02-27T12:55:51.495Z,16.60
2019-02-27T12:57:33.608Z,16.90
2019-02-27T12:58:33.545Z,17.60
2019-02-27T12:59:33.672Z,16.00
2019-02-27T13:00:33.395Z,16.70
2019-02-27T13:01:33.325Z,16.50
2019-02-27T13:02:35.783Z,16.20
2019-02-27T13:03:33.172Z,15.60
2019-02-27T13:04:33.107Z,14.80
2019-02-27T13:05:33.032Z,14.80
2019-02-27T13:06:37.142Z,14.50
2019-02-27T13:07:32.883Z,16.00
2019-02-27T13:08:32.807Z,16.80
2019-02-27T13:09:32.735Z,16.30
2019-02-27T13:10:34.022Z,17.30
2019-02-27T13:11:32.596Z,13.90
2019-02-27T13:12:32.521Z,17.10
2019-02-27T13:13:32.445Z,15.90
2019-02-27T13:14:33.360Z,17.90
2019-02-27T13:15:32.300Z,17.00
2019-02-27T13:16:32.232Z,18.20
2019-02-27T13:17:32.158Z,15.50
2019-02-27T13:18:32.685Z,17.00
2019-02-27T13:19:32.022Z,16.10
2019-02-27T13:20:31.934Z,18.80
2019-02-27T13:21:31.859Z,18.10
2019-02-27T13:22:31.784Z,16.50
2019-02-27T13:23:31.710Z,17.30
2019-02-27T13:24:31.647Z,17.40